Time;durP1;ratioP1;P1;durP2;ratioP2;P2;SDS_P1;SDS_P2;PMS_P1;PMS_P2;Temp;Humidity;BMP_temperature;BMP_pressure;BME280_temperature;BME280_humidity;BME280_pressure;Samples;Min_cycle;Max_cycle;Signal;HPM_P1;HPM_P2
2022/05/29 00:00:19;;;;;;;13.25;2.95;;;10.60;99.90;;;;;;5037335;28;20033;-70
2022/05/29 00:02:45;;;;;;;18.45;3.58;;;10.70;99.90;;;;;;5054286;28;20412;-70
2022/05/29 00:05:12;;;;;;;14.77;3.58;;;10.70;99.90;;;;;;5037302;28;20048;-70
2022/05/29 00:07:40;;;;;;;12.80;3.08;;;10.70;99.90;;;;;;5054264;28;20041;-71
2022/05/29 00:10:09;;;;;;;11.40;2.90;;;10.70;99.90;;;;;;5053679;28;20044;-71
2022/05/29 00:12:34;;;;;;;15.95;3.22;;;10.70;99.90;;;;;;5037350;28;20037;-71
2022/05/29 00:15:01;;;;;;;11.88;3.42;;;10.70;99.90;;;;;;5054027;28;20044;-71
2022/05/29 00:17:26;;;;;;;10.88;3.42;;;10.70;99.90;;;;;;5054046;28;20132;-71
2022/05/29 00:19:52;;;;;;;16.02;3.65;;;10.70;99.90;;;;;;5053541;28;20123;-71
2022/05/29 00:22:19;;;;;;;16.17;3.58;;;10.70;99.90;;;;;;5037037;28;20040;-71
2022/05/29 00:24:47;;;;;;;17.08;3.90;;;10.70;99.90;;;;;;5053798;28;20080;-71
2022/05/29 00:27:13;;;;;;;10.05;3.88;;;10.60;99.90;;;;;;5036985;28;20125;-71
2022/05/29 00:29:39;;;;;;;12.70;3.53;;;10.70;99.90;;;;;;5036866;28;20037;-70
2022/05/29 00:32:06;;;;;;;15.20;3.60;;;10.60;99.90;;;;;;5053335;28;20102;-70
2022/05/29 00:34:32;;;;;;;12.90;3.78;;;10.60;99.90;;;;;;5053391;28;20125;-71
2022/05/29 00:36:58;;;;;;;15.07;3.67;;;10.60;99.90;;;;;;5053653;28;20033;-70
2022/05/29 00:39:25;;;;;;;17.52;3.83;;;10.60;99.90;;;;;;5053484;28;20041;-70
2022/05/29 00:41:51;;;;;;;15.30;3.72;;;10.50;99.90;;;;;;5053260;28;20045;-71
2022/05/29 00:44:27;;;;;;;15.75;3.45;;;10.50;99.90;;;;;;5053488;28;20044;-71
2022/05/29 00:46:59;;;;;;;14.48;3.35;;;10.60;99.90;;;;;;5053182;28;20091;-70
2022/05/29 00:49:28;;;;;;;14.68;3.83;;;10.60;99.90;;;;;;5036416;28;20456;-70
2022/05/29 00:52:12;;;;;;;14.00;3.60;;;10.60;99.90;;;;;;5052960;28;20520;-70
2022/05/29 00:54:45;;;;;;;16.00;3.55;;;10.60;99.90;;;;;;5036752;28;20493;-70
2022/05/29 00:57:15;;;;;;;18.10;4.05;;;10.60;99.90;;;;;;5053268;28;20105;-70
2022/05/29 00:59:41;;;;;;;16.65;3.80;;;10.50;99.90;;;;;;5052859;28;20045;-70
2022/05/29 01:02:07;;;;;;;12.68;3.45;;;10.50;99.90;;;;;;5052845;28;20524;-70
2022/05/29 01:04:35;;;;;;;16.10;3.90;;;10.50;99.90;;;;;;5052755;28;20087;-70
2022/05/29 01:07:06;;;;;;;21.25;3.80;;;10.50;99.90;;;;;;5052984;28;20488;-70
2022/05/29 01:09:33;;;;;;;17.48;3.75;;;10.40;99.90;;;;;;5052756;28;20090;-70
2022/05/29 01:12:07;;;;;;;15.68;3.75;;;10.40;99.90;;;;;;5052625;28;20037;-70
2022/05/29 01:14:54;;;;;;;14.35;4.00;;;10.40;99.90;;;;;;5052507;28;20033;-70
2022/05/29 01:17:50;;;;;;;14.70;3.80;;;10.50;99.90;;;;;;5035957;28;20455;-70
2022/05/29 01:20:29;;;;;;;22.05;4.88;;;10.40;99.90;;;;;;5052435;28;20044;-70
2022/05/29 01:23:07;;;;;;;18.25;3.55;;;10.40;99.90;;;;;;5052769;28;20074;-70
2022/05/29 01:25:54;;;;;;;13.75;3.92;;;10.40;99.90;;;;;;5052420;28;20493;-71
2022/05/29 01:28:41;;;;;;;21.77;4.00;;;10.30;99.90;;;;;;5035745;28;20087;-70
2022/05/29 01:31:16;;;;;;;13.60;3.75;;;10.40;99.90;;;;;;5052204;28;20043;-70
2022/05/29 01:33:55;;;;;;;14.02;4.07;;;10.30;99.90;;;;;;5052245;28;20040;-71
2022/05/29 01:36:34;;;;;;;15.98;4.18;;;10.40;99.90;;;;;;5052223;28;20037;-71
2022/05/29 01:39:21;;;;;;;14.45;3.38;;;10.40;99.90;;;;;;5052265;28;20037;-70
2022/05/29 01:42:01;;;;;;;14.27;3.90;;;10.30;99.90;;;;;;5038128;28;20052;-70
2022/05/29 01:44:50;;;;;;;16.17;3.70;;;10.40;99.90;;;;;;5035769;28;20045;-71
2022/05/29 01:47:21;;;;;;;15.38;3.72;;;10.40;99.90;;;;;;5035536;28;20041;-70
2022/05/29 01:50:08;;;;;;;13.80;4.00;;;10.30;99.90;;;;;;5052256;28;20099;-71
2022/05/29 01:52:52;;;;;;;16.42;3.53;;;10.40;99.90;;;;;;5035353;28;20481;-71
2022/05/29 01:55:28;;;;;;;14.73;3.65;;;10.30;99.90;;;;;;5034862;28;20512;-71
2022/05/29 01:58:01;;;;;;;15.32;3.30;;;10.30;99.90;;;;;;5052251;28;20049;-70
2022/05/29 02:00:27;;;;;;;16.27;3.72;;;10.20;99.90;;;;;;5035590;28;20037;-70
2022/05/29 02:03:02;;;;;;;13.60;3.35;;;10.20;99.90;;;;;;5035517;28;20623;-70
2022/05/29 02:05:36;;;;;;;13.18;2.90;;;10.20;99.90;;;;;;5051921;28;20033;-70
2022/05/29 02:08:14;;;;;;;10.32;3.58;;;10.30;99.90;;;;;;5051896;28;20091;-71
2022/05/29 02:10:51;;;;;;;15.98;4.03;;;10.30;99.90;;;;;;5051670;28;20045;-70
2022/05/29 02:13:32;;;;;;;15.38;3.95;;;10.30;99.90;;;;;;5051796;28;20045;-71
2022/05/29 02:16:08;;;;;;;13.27;3.55;;;10.30;99.90;;;;;;5051798;28;20048;-70
2022/05/29 02:18:37;;;;;;;18.52;3.88;;;10.30;99.90;;;;;;5051682;28;20067;-71
2022/05/29 02:21:08;;;;;;;14.65;3.38;;;10.20;99.90;;;;;;5051931;28;20045;-70
2022/05/29 02:23:39;;;;;;;12.07;3.03;;;10.20;99.90;;;;;;5052161;28;20421;-69
2022/05/29 02:26:07;;;;;;;17.25;3.60;;;10.20;99.90;;;;;;5051910;28;20408;-69
2022/05/29 02:28:40;;;;;;;10.70;3.00;;;10.20;99.90;;;;;;5051594;28;20076;-69
2022/05/29 02:31:16;;;;;;;16.17;3.58;;;10.20;99.90;;;;;;5051741;28;20493;-69
2022/05/29 02:34:03;;;;;;;16.67;3.38;;;10.20;99.90;;;;;;5051599;28;20489;-69
2022/05/29 02:37:05;;;;;;;14.20;3.55;;;10.20;99.90;;;;;;5034951;28;20489;-69
2022/05/29 02:39:43;;;;;;;10.88;3.83;;;10.20;99.90;;;;;;5051386;28;20413;-69
2022/05/29 02:42:14;;;;;;;17.60;3.72;;;10.20;99.90;;;;;;5051578;28;20037;-69
2022/05/29 02:44:52;;;;;;;13.07;3.63;;;10.20;99.90;;;;;;5034892;28;20087;-69
2022/05/29 02:47:33;;;;;;;15.48;3.50;;;10.20;99.90;;;;;;5051503;28;20045;-69
2022/05/29 02:50:05;;;;;;;15.93;3.90;;;10.20;99.90;;;;;;5051597;28;20064;-69
2022/05/29 02:52:31;;;;;;;15.55;3.92;;;10.20;99.90;;;;;;5051350;28;20077;-69
2022/05/29 02:54:57;;;;;;;13.40;3.55;;;10.20;99.90;;;;;;5051380;28;20041;-69
2022/05/29 02:57:23;;;;;;;12.00;3.63;;;10.20;99.90;;;;;;5051363;28;20037;-69
2022/05/29 02:59:54;;;;;;;15.32;3.70;;;10.20;99.90;;;;;;5051170;28;20046;-69
2022/05/29 03:02:33;;;;;;;14.48;3.38;;;10.20;99.90;;;;;;5051338;28;20048;-69
2022/05/29 03:05:11;;;;;;;16.38;4.10;;;10.20;99.90;;;;;;5052214;28;20049;-69
2022/05/29 03:08:02;;;;;;;20.02;3.78;;;10.20;99.90;;;;;;5055054;28;20467;-69
2022/05/29 03:10:34;;;;;;;12.48;3.58;;;10.20;99.90;;;;;;5038166;28;20037;-69
2022/05/29 03:13:18;;;;;;;17.13;3.80;;;10.20;99.90;;;;;;5054945;28;20413;-69
2022/05/29 03:16:03;;;;;;;11.75;3.30;;;10.20;99.90;;;;;;5055152;28;20215;-69
2022/05/29 03:18:53;;;;;;;14.23;3.35;;;10.20;99.90;;;;;;5054792;28;20405;-69
2022/05/29 03:21:54;;;;;;;16.67;3.55;;;10.20;99.90;;;;;;5038400;28;20055;-69
2022/05/29 03:24:19;;;;;;;12.43;2.85;;;10.20;99.90;;;;;;5056503;28;20102;-69
2022/05/29 03:27:06;;;;;;;12.00;3.10;;;10.20;99.90;;;;;;5054863;28;20493;-69
2022/05/29 03:29:42;;;;;;;15.00;3.63;;;10.20;99.90;;;;;;5054543;28;20037;-69
2022/05/29 03:32:08;;;;;;;14.57;3.40;;;10.20;99.90;;;;;;5054539;28;20037;-69
2022/05/29 03:34:34;;;;;;;12.73;3.22;;;10.20;99.90;;;;;;5037968;28;20063;-69
2022/05/29 03:36:59;;;;;;;12.52;3.42;;;10.20;99.90;;;;;;5054696;28;20041;-69
2022/05/29 03:39:25;;;;;;;13.48;2.58;;;10.30;99.90;;;;;;5054603;28;20393;-69
2022/05/29 03:41:52;;;;;;;13.32;2.50;;;10.30;99.90;;;;;;5054612;28;20563;-69
2022/05/29 03:44:21;;;;;;;11.85;3.17;;;10.30;99.90;;;;;;5054295;28;20493;-69
2022/05/29 03:46:47;;;;;;;10.90;3.15;;;10.30;99.90;;;;;;5054282;28;20127;-69
2022/05/29 03:49:18;;;;;;;9.50;2.80;;;10.30;99.90;;;;;;5037826;28;20072;-69
2022/05/29 03:51:44;;;;;;;10.68;2.60;;;10.30;99.90;;;;;;5054902;28;20049;-69
2022/05/29 03:54:10;;;;;;;11.98;2.35;;;10.40;99.90;;;;;;5054195;28;20047;-69
2022/05/29 03:56:37;;;;;;;12.40;3.53;;;10.40;99.90;;;;;;5037500;28;20037;-69
2022/05/29 03:59:03;;;;;;;12.60;2.80;;;10.40;99.90;;;;;;5054068;28;20036;-69
2022/05/29 04:01:29;;;;;;;9.18;2.22;;;10.40;99.90;;;;;;5053940;28;20497;-69
2022/05/29 04:03:55;;;;;;;12.57;2.88;;;10.40;99.90;;;;;;5055171;28;20037;-69
2022/05/29 04:06:22;;;;;;;14.77;3.25;;;10.40;99.90;;;;;;5053926;28;20546;-69
2022/05/29 04:14:17;;;;;;;12.32;2.63;;;10.40;99.90;;;;;;5053736;28;20119;-69
2022/05/29 04:16:43;;;;;;;12.68;3.30;;;10.40;99.90;;;;;;5053131;28;20124;-69
2022/05/29 04:19:08;;;;;;;18.17;3.28;;;10.40;99.90;;;;;;5053673;28;20120;-69
2022/05/29 04:21:34;;;;;;;15.20;3.00;;;10.40;99.90;;;;;;5053525;28;20045;-69
2022/05/29 04:23:59;;;;;;;16.23;3.00;;;10.40;99.90;;;;;;5053599;28;20083;-69
2022/05/29 04:26:25;;;;;;;12.40;2.67;;;10.40;99.90;;;;;;5053548;28;20044;-69
2022/05/29 04:28:50;;;;;;;15.75;3.22;;;10.40;99.90;;;;;;5053446;28;20040;-69
2022/05/29 04:31:16;;;;;;;14.95;3.33;;;10.40;99.90;;;;;;5036967;28;20086;-69
2022/05/29 04:33:42;;;;;;;12.23;2.83;;;10.40;99.90;;;;;;5053409;28;20413;-69
2022/05/29 04:36:07;;;;;;;11.05;2.60;;;10.50;99.90;;;;;;5053595;28;20029;-69
2022/05/29 04:38:33;;;;;;;12.27;2.50;;;10.50;99.90;;;;;;5053311;28;20059;-69
2022/05/29 04:41:05;;;;;;;12.10;2.72;;;10.50;99.90;;;;;;5053218;28;20044;-69
2022/05/29 04:43:31;;;;;;;7.22;2.13;;;10.50;99.90;;;;;;5036694;28;20504;-69
2022/05/29 04:45:57;;;;;;;12.32;2.42;;;10.50;99.90;;;;;;5053419;28;20045;-69
2022/05/29 04:48:23;;;;;;;13.20;2.30;;;10.50;99.90;;;;;;5053112;28;20091;-69
2022/05/29 04:50:54;;;;;;;12.85;2.70;;;10.50;99.90;;;;;;5052995;28;20037;-69
2022/05/29 04:53:19;;;;;;;11.40;2.85;;;10.50;99.90;;;;;;5053360;28;20099;-69
2022/05/29 04:55:45;;;;;;;12.20;2.70;;;10.60;99.90;;;;;;5052921;28;20497;-69
2022/05/29 04:58:10;;;;;;;15.57;2.65;;;10.60;99.90;;;;;;5052879;28;20037;-69
2022/05/29 05:00:36;;;;;;;14.35;2.67;;;10.60;99.90;;;;;;5053036;28;20090;-69
2022/05/29 05:03:02;;;;;;;13.98;3.00;;;10.60;99.90;;;;;;5053097;28;20409;-69
2022/05/29 05:05:28;;;;;;;9.82;2.63;;;10.60;99.90;;;;;;5052787;28;20489;-69
2022/05/29 05:07:53;;;;;;;15.05;2.95;;;10.60;99.90;;;;;;5036144;28;20037;-69
2022/05/29 05:10:20;;;;;;;12.48;2.40;;;10.60;99.90;;;;;;5035813;28;20190;-69
2022/05/29 05:12:45;;;;;;;8.73;2.45;;;10.60;99.90;;;;;;5052600;28;20033;-69
2022/05/29 05:15:14;;;;;;;13.23;2.55;;;10.60;99.90;;;;;;5036227;28;20048;-69
2022/05/29 05:17:40;;;;;;;14.40;2.83;;;10.60;99.90;;;;;;5052557;28;20033;-69
2022/05/29 05:20:06;;;;;;;10.48;2.10;;;10.60;99.90;;;;;;5052443;28;20044;-69
2022/05/29 05:22:33;;;;;;;10.80;2.95;;;10.60;99.90;;;;;;5052730;28;20037;-69
2022/05/29 05:24:59;;;;;;;8.70;2.00;;;10.60;99.90;;;;;;5052386;28;20478;-69
2022/05/29 05:27:24;;;;;;;9.95;2.25;;;10.60;99.90;;;;;;5035749;28;20128;-69
2022/05/29 05:29:50;;;;;;;10.57;2.65;;;10.60;99.90;;;;;;5051435;28;20044;-69
2022/05/29 05:32:15;;;;;;;12.25;2.15;;;10.50;99.90;;;;;;5052324;28;20075;-69
2022/05/29 05:34:41;;;;;;;15.10;3.10;;;10.50;99.90;;;;;;5052487;28;20432;-69
2022/05/29 05:37:08;;;;;;;13.13;2.55;;;10.50;99.90;;;;;;5053035;28;20449;-69
2022/05/29 05:39:34;;;;;;;12.27;3.30;;;10.50;99.90;;;;;;5052357;28;20489;-69
2022/05/29 05:41:59;;;;;;;13.80;3.10;;;10.60;99.90;;;;;;5052091;28;20083;-69
2022/05/29 05:44:25;;;;;;;14.57;3.00;;;10.60;99.90;;;;;;5052109;28;20037;-69
2022/05/29 05:46:56;;;;;;;12.65;2.60;;;10.60;99.90;;;;;;5052342;28;20089;-69
2022/05/29 05:49:23;;;;;;;11.98;2.63;;;10.60;99.90;;;;;;5052296;28;20084;-69
2022/05/29 05:51:50;;;;;;;14.70;2.75;;;10.60;99.90;;;;;;5052142;28;20390;-69
2022/05/29 05:54:16;;;;;;;13.27;2.67;;;10.70;99.90;;;;;;5035629;28;20040;-69
2022/05/29 05:56:44;;;;;;;16.80;3.33;;;10.80;99.90;;;;;;5051937;28;20033;-69
2022/05/29 05:59:10;;;;;;;17.70;3.10;;;10.90;99.90;;;;;;5052200;28;20054;-69
2022/05/29 06:01:37;;;;;;;15.95;2.60;;;10.90;99.90;;;;;;5051806;28;20040;-69
2022/05/29 06:04:02;;;;;;;12.63;2.72;;;11.00;99.90;;;;;;5051919;28;20037;-69
2022/05/29 06:06:28;;;;;;;13.52;3.03;;;11.00;99.90;;;;;;5051821;28;20215;-69
2022/05/29 06:08:55;;;;;;;15.32;2.42;;;11.00;99.90;;;;;;5035250;28;20059;-69
2022/05/29 06:11:20;;;;;;;11.27;2.97;;;11.10;99.90;;;;;;5035004;28;20033;-69
2022/05/29 06:13:46;;;;;;;14.18;2.65;;;11.10;99.90;;;;;;5035386;28;20048;-69
2022/05/29 06:16:12;;;;;;;17.02;2.70;;;11.10;99.90;;;;;;5035141;28;20378;-69
2022/05/29 06:18:38;;;;;;;16.55;3.20;;;11.10;99.90;;;;;;5051707;28;20090;-69
2022/05/29 06:21:05;;;;;;;9.82;2.30;;;11.20;99.90;;;;;;5051639;28;20059;-69
2022/05/29 06:23:31;;;;;;;13.40;2.60;;;11.20;99.90;;;;;;5051898;28;20484;-69
2022/05/29 06:26:02;;;;;;;15.27;3.15;;;11.20;99.90;;;;;;5051652;28;20068;-69
2022/05/29 06:28:27;;;;;;;10.27;2.50;;;11.30;99.90;;;;;;5051892;28;20489;-69
2022/05/29 06:30:53;;;;;;;15.13;2.75;;;11.30;99.90;;;;;;5051524;28;20091;-69
2022/05/29 06:33:18;;;;;;;11.70;2.75;;;11.40;99.90;;;;;;5051449;28;20036;-69
2022/05/29 06:35:44;;;;;;;15.23;2.78;;;11.40;99.90;;;;;;5051829;28;20131;-69
2022/05/29 06:38:09;;;;;;;10.25;2.72;;;11.40;99.90;;;;;;5051491;28;20409;-69
2022/05/29 06:40:36;;;;;;;11.02;2.10;;;11.30;99.90;;;;;;5053102;28;20037;-69
2022/05/29 06:43:02;;;;;;;12.60;2.50;;;11.30;99.90;;;;;;5055732;28;20053;-69
2022/05/29 06:45:27;;;;;;;13.48;3.05;;;11.20;99.90;;;;;;5055403;28;20047;-69
2022/05/29 06:47:53;;;;;;;15.75;2.50;;;11.30;99.90;;;;;;5055674;28;20175;-69
2022/05/29 06:50:18;;;;;;;13.13;2.63;;;11.20;99.90;;;;;;5055543;28;20489;-69
2022/05/29 06:52:44;;;;;;;14.65;3.20;;;11.30;99.90;;;;;;5055242;28;20429;-69
2022/05/29 06:55:10;;;;;;;14.27;2.45;;;11.30;99.90;;;;;;5055258;28;20141;-69
2022/05/29 06:57:43;;;;;;;14.15;2.90;;;11.30;99.90;;;;;;5055204;28;20084;-69
2022/05/29 07:08:37;;;;;;;17.73;3.22;;;11.30;99.90;;;;;;5055265;28;20048;-69
2022/05/29 07:11:08;;;;;;;16.42;3.25;;;11.30;99.90;;;;;;5054795;28;20421;-69
2022/05/29 07:13:35;;;;;;;19.88;3.45;;;11.30;99.90;;;;;;5055020;28;20120;-69
2022/05/29 07:16:01;;;;;;;13.88;3.03;;;11.30;99.90;;;;;;5038531;28;20045;-69
2022/05/29 07:18:27;;;;;;;15.60;2.63;;;11.30;99.90;;;;;;5055106;28;20517;-69
2022/05/29 07:20:53;;;;;;;13.48;2.75;;;11.40;99.90;;;;;;5054747;28;20041;-69
2022/05/29 07:23:19;;;;;;;17.52;2.80;;;11.40;99.90;;;;;;5054671;28;20051;-69
2022/05/29 07:25:45;;;;;;;14.20;2.85;;;11.40;99.90;;;;;;5038109;28;20037;-69
2022/05/29 07:28:11;;;;;;;16.85;3.45;;;11.40;99.90;;;;;;5054660;28;20056;-69
2022/05/29 07:30:37;;;;;;;15.38;2.65;;;11.50;99.90;;;;;;5054551;28;20041;-69
2022/05/29 07:33:03;;;;;;;14.73;2.70;;;11.50;99.90;;;;;;5054486;28;20413;-69
2022/05/29 07:35:29;;;;;;;14.68;2.72;;;11.60;99.90;;;;;;5054521;28;20033;-69
2022/05/29 07:37:56;;;;;;;16.63;3.25;;;11.60;99.90;;;;;;5054455;28;20052;-69
2022/05/29 07:40:22;;;;;;;15.02;2.65;;;11.70;99.90;;;;;;5054394;28;20079;-69
2022/05/29 07:45:32;;;;;;;13.98;2.65;;;11.90;99.90;;;;;;5054594;28;20092;-69
2022/05/29 07:47:57;;;;;;;16.33;2.35;;;12.00;99.90;;;;;;5054580;28;20528;-69
2022/05/29 07:50:23;;;;;;;11.20;2.38;;;12.00;99.90;;;;;;5054257;28;20047;-69
2022/05/29 07:52:54;;;;;;;11.02;2.17;;;12.10;99.90;;;;;;5053206;28;20045;-69
2022/05/29 07:55:20;;;;;;;10.68;1.73;;;12.20;99.90;;;;;;5054471;28;20040;-69
2022/05/29 07:57:46;;;;;;;8.02;1.90;;;12.20;99.90;;;;;;5054151;28;20029;-69
2022/05/29 08:00:15;;;;;;;12.48;2.00;;;12.20;99.90;;;;;;5054003;28;20040;-69
2022/05/29 08:02:41;;;;;;;14.35;2.28;;;12.20;99.90;;;;;;5054212;28;20453;-69
2022/05/29 08:05:09;;;;;;;10.88;2.17;;;12.20;99.90;;;;;;5054265;28;20044;-69
2022/05/29 08:07:35;;;;;;;13.80;2.03;;;12.20;99.90;;;;;;5053978;28;20045;-69
2022/05/29 08:10:00;;;;;;;13.30;2.38;;;12.20;99.90;;;;;;5053914;28;20044;-69
2022/05/29 08:12:26;;;;;;;10.43;2.03;;;12.20;99.90;;;;;;5037344;28;20440;-69
2022/05/29 08:14:51;;;;;;;11.73;2.35;;;12.20;99.90;;;;;;5053789;28;20037;-69
2022/05/29 08:17:17;;;;;;;14.63;2.13;;;12.20;99.90;;;;;;5053720;28;20041;-69
2022/05/29 08:19:43;;;;;;;14.77;2.30;;;12.10;99.90;;;;;;5053708;28;20044;-69
2022/05/29 08:22:08;;;;;;;9.57;1.80;;;12.10;99.90;;;;;;5053944;28;20033;-69
2022/05/29 08:30:37;;;;;;;10.43;1.85;;;12.00;99.90;;;;;;5053418;28;20045;-69
2022/05/29 08:33:11;;;;;;;7.43;1.90;;;12.00;99.90;;;;;;5036775;28;20456;-69
2022/05/29 08:35:38;;;;;;;5.70;1.50;;;12.10;99.90;;;;;;5053443;28;20071;-69
2022/05/29 08:38:05;;;;;;;7.20;1.80;;;12.20;99.90;;;;;;5053599;28;20076;-69
2022/05/29 08:40:33;;;;;;;11.68;1.70;;;12.20;99.90;;;;;;5053288;28;20040;-69
2022/05/29 08:42:58;;;;;;;7.95;1.70;;;12.30;99.90;;;;;;5053310;28;20488;-69
2022/05/29 08:45:29;;;;;;;8.35;1.55;;;12.40;99.90;;;;;;5054345;28;20123;-69
2022/05/29 08:47:55;;;;;;;7.65;1.42;;;12.40;99.90;;;;;;5053485;28;20060;-69
2022/05/29 08:50:33;;;;;;;7.88;1.30;;;12.40;99.90;;;;;;5053013;28;20382;-69
2022/05/29 08:53:05;;;;;;;4.90;1.10;;;12.40;99.90;;;;;;5052968;28;20378;-69
2022/05/29 08:55:57;;;;;;;5.30;1.10;;;12.40;99.90;;;;;;5053030;28;20091;-69
2022/05/29 08:58:51;;;;;;;7.25;1.27;;;12.30;99.90;;;;;;5053325;28;20110;-69
2022/05/29 09:01:39;;;;;;;7.55;1.65;;;12.30;99.90;;;;;;5036209;28;20029;-69
2022/05/29 09:04:10;;;;;;;7.57;1.27;;;12.20;99.90;;;;;;5052798;28;20120;-69
2022/05/29 09:06:47;;;;;;;7.10;1.17;;;12.20;99.90;;;;;;5052862;28;20045;-69
2022/05/29 09:09:43;;;;;;;7.30;1.20;;;12.20;99.90;;;;;;5052802;28;20041;-69
2022/05/29 09:12:17;;;;;;;10.63;1.83;;;12.20;99.90;;;;;;5041895;28;20060;-69
2022/05/29 09:14:52;;;;;;;6.25;1.20;;;12.30;99.90;;;;;;5036073;28;20083;-69
2022/05/29 09:17:42;;;;;;;11.35;1.73;;;12.30;99.90;;;;;;5052853;28;20511;-69
2022/05/29 09:20:37;;;;;;;7.05;1.70;;;12.40;99.90;;;;;;5053014;28;20047;-69
2022/05/29 09:23:05;;;;;;;11.30;1.52;;;12.50;99.90;;;;;;5052759;28;20067;-69
2022/05/29 09:25:33;;;;;;;9.32;1.30;;;12.50;99.90;;;;;;5052469;28;20124;-69
2022/05/29 09:28:07;;;;;;;9.40;1.20;;;12.50;99.90;;;;;;5052426;28;20404;-69
2022/05/29 09:30:33;;;;;;;6.88;1.30;;;12.60;99.90;;;;;;5052673;28;20110;-69
2022/05/29 09:33:02;;;;;;;9.38;1.20;;;12.60;99.90;;;;;;5052299;28;20044;-69
2022/05/29 09:35:38;;;;;;;5.65;1.25;;;12.80;99.90;;;;;;5052297;28;20029;-69
2022/05/29 09:38:24;;;;;;;8.63;1.38;;;12.80;99.90;;;;;;5035956;28;20033;-69
2022/05/29 09:41:07;;;;;;;7.68;1.27;;;12.90;99.90;;;;;;5052152;28;20041;-69
2022/05/29 09:43:33;;;;;;;;;;;12.90;99.90;;;;;;5052646;28;20120;-69
2022/05/29 09:46:22;;;;;;;7.95;1.58;;;12.80;99.90;;;;;;5052131;28;20042;-69
2022/05/29 09:51:49;;;;;;;5.63;1.23;;;12.90;99.90;;;;;;5051819;28;20049;-69
2022/05/29 09:54:29;;;;;;;9.30;1.40;;;12.90;99.90;;;;;;5035467;28;20048;-69
2022/05/29 09:57:05;;;;;;;6.63;1.33;;;13.00;99.90;;;;;;5052299;28;20142;-69
2022/05/29 09:59:35;;;;;;;9.48;1.63;;;13.00;99.90;;;;;;5051928;28;20531;-69
2022/05/29 10:02:02;;;;;;;8.32;1.50;;;13.00;99.90;;;;;;5051936;28;20098;-69
2022/05/29 10:04:41;;;;;;;6.57;1.60;;;13.00;99.90;;;;;;5051885;28;20047;-69
2022/05/29 10:07:17;;;;;;;10.00;1.52;;;13.00;99.90;;;;;;5051816;28;20052;-69
2022/05/29 10:10:09;;;;;;;12.30;1.58;;;12.90;99.90;;;;;;5051899;28;20086;-69
2022/05/29 10:12:54;;;;;;;7.68;1.60;;;13.00;99.90;;;;;;5051709;28;20048;-69
2022/05/29 10:15:26;;;;;;;8.35;1.42;;;12.90;99.90;;;;;;5051545;28;20486;-69
2022/05/29 10:18:01;;;;;;;8.45;1.25;;;12.90;99.90;;;;;;5051950;28;20041;-69
2022/05/29 10:20:36;;;;;;;9.88;1.60;;;13.00;99.90;;;;;;5051683;28;20041;-69
2022/05/29 10:23:26;;;;;;;8.52;1.38;;;12.90;99.90;;;;;;5035112;28;20041;-69
2022/05/29 10:25:59;;;;;;;8.27;1.52;;;12.80;99.90;;;;;;5041296;28;20532;-69
2022/05/29 10:28:31;;;;;;;8.27;1.83;;;12.80;99.90;;;;;;5035034;28;20052;-69
2022/05/29 10:31:08;;;;;;;7.25;1.25;;;12.70;99.90;;;;;;5051599;28;20559;-69
2022/05/29 10:33:35;;;;;;;5.32;1.02;;;12.70;99.90;;;;;;5051614;28;20041;-69
2022/05/29 10:36:09;;;;;;;7.60;1.30;;;12.60;99.90;;;;;;5034995;28;20029;-69
2022/05/29 10:38:36;;;;;;;6.03;1.15;;;12.70;99.90;;;;;;5051537;28;20147;-69
2022/05/29 10:41:04;;;;;;;5.00;0.95;;;12.70;99.90;;;;;;5051484;28;20033;-69
2022/05/29 10:43:37;;;;;;;5.22;0.70;;;12.80;99.90;;;;;;5051532;28;20049;-69
2022/05/29 10:46:21;;;;;;;5.13;1.13;;;13.10;99.90;;;;;;5051423;28;20416;-69
2022/05/29 10:49:34;;;;;;;5.65;0.80;;;13.40;99.90;;;;;;5034853;28;20045;-69
2022/05/29 10:52:29;;;;;;;7.18;1.38;;;13.80;99.90;;;;;;5051363;28;20482;-69
2022/05/29 10:55:22;;;;;;;6.45;1.08;;;14.10;99.90;;;;;;5051496;28;20105;-69
2022/05/29 10:58:14;;;;;;;8.67;1.27;;;14.30;99.90;;;;;;5051372;28;20511;-68
2022/05/29 11:00:47;;;;;;;6.78;1.30;;;14.30;99.90;;;;;;5051317;28;20033;-69
2022/05/29 11:03:43;;;;;;;5.95;1.10;;;14.10;99.90;;;;;;5034698;28;20044;-69
2022/05/29 11:06:21;;;;;;;7.88;1.08;;;13.90;99.90;;;;;;5051271;28;20416;-69
2022/05/29 11:09:02;;;;;;;6.45;1.02;;;13.60;99.90;;;;;;5051467;28;20037;-69
2022/05/29 11:12:05;;;;;;;5.00;1.02;;;13.40;99.90;;;;;;5034720;28;20051;-69
2022/05/29 11:14:48;;;;;;;6.20;1.20;;;13.30;99.90;;;;;;5051264;28;20455;-69
2022/05/29 11:17:26;;;;;;;7.15;1.30;;;13.20;99.90;;;;;;5034627;28;20036;-69
2022/05/29 11:20:00;;;;;;;7.03;1.23;;;13.20;99.90;;;;;;5051167;28;20041;-69
2022/05/29 11:22:51;;;;;;;10.82;1.75;;;13.30;99.90;;;;;;5034604;28;20051;-69
2022/05/29 11:25:34;;;;;;;6.32;1.05;;;13.40;99.90;;;;;;5051393;28;20045;-69
2022/05/29 11:28:12;;;;;;;7.80;1.65;;;13.50;99.90;;;;;;5053245;28;20527;-69
2022/05/29 11:31:05;;;;;;;4.80;1.10;;;13.70;99.90;;;;;;5054581;28;20047;-69
2022/05/29 11:33:48;;;;;;;6.25;1.48;;;13.90;99.90;;;;;;5054821;28;20041;-69
2022/05/29 11:36:30;;;;;;;4.72;1.00;;;14.20;99.90;;;;;;5054621;28;20048;-69
2022/05/29 11:39:06;;;;;;;2.65;0.90;;;14.40;99.90;;;;;;5054541;28;20045;-69
2022/05/29 11:41:44;;;;;;;6.18;1.42;;;14.50;99.90;;;;;;5054526;28;20072;-71
2022/05/29 11:44:17;;;;;;;5.63;0.80;;;14.50;99.90;;;;;;5054439;28;20037;-70
2022/05/29 11:52:50;;;;;;;7.10;1.63;;;14.50;99.90;;;;;;5054271;28;20077;-70
2022/05/29 11:55:22;;;;;;;4.28;1.13;;;14.30;99.90;;;;;;5054221;28;20077;-70
2022/05/29 11:57:52;;;;;;;6.40;1.67;;;14.20;99.90;;;;;;5054164;28;20119;-70
2022/05/29 12:00:55;;;;;;;7.47;1.23;;;14.00;99.90;;;;;;5054218;28;20037;-70
2022/05/29 12:03:50;;;;;;;9.07;1.35;;;13.80;99.90;;;;;;5054010;28;20471;-70
2022/05/29 12:06:34;;;;;;;8.73;1.45;;;13.60;99.90;;;;;;5053994;28;20462;-70
2022/05/29 12:09:24;;;;;;;7.22;1.45;;;13.60;99.90;;;;;;5053970;28;20505;-70
2022/05/29 12:12:00;;;;;;;9.63;1.80;;;13.60;99.90;;;;;;5053820;28;20037;-70
2022/05/29 12:14:53;;;;;;;7.68;1.77;;;13.60;99.90;;;;;;5053850;28;20417;-70
2022/05/29 12:17:36;;;;;;;9.80;1.35;;;13.70;99.90;;;;;;5054006;28;20040;-70
2022/05/29 12:20:07;;;;;;;10.70;2.30;;;13.80;99.90;;;;;;5053717;28;20436;-70
2022/05/29 12:22:44;;;;;;;9.23;1.70;;;13.90;99.90;;;;;;5054000;28;20037;-70
2022/05/29 12:25:34;;;;;;;7.65;1.80;;;14.00;99.90;;;;;;5054167;28;20049;-70
2022/05/29 12:28:08;;;;;;;7.03;1.42;;;14.20;99.90;;;;;;5053648;28;20045;-70
2022/05/29 12:30:44;;;;;;;9.88;1.75;;;14.30;99.90;;;;;;5053513;28;20505;-70
2022/05/29 12:33:16;;;;;;;7.93;1.73;;;14.40;99.90;;;;;;5053471;28;20099;-70
2022/05/29 12:36:00;;;;;;;9.65;1.60;;;14.50;99.90;;;;;;5053468;28;20045;-70
2022/05/29 12:38:57;;;;;;;8.32;1.50;;;14.50;99.90;;;;;;5036299;28;20040;-70
2022/05/29 12:41:35;;;;;;;6.53;1.73;;;14.40;99.90;;;;;;5053265;28;20075;-70
2022/05/29 12:44:28;;;;;;;8.15;2.20;;;14.30;99.90;;;;;;5053475;28;20037;-70
2022/05/29 12:47:25;;;;;;;11.93;1.45;;;14.20;99.90;;;;;;5053227;28;20387;-70
2022/05/29 12:50:19;;;;;;;9.25;1.77;;;14.00;99.90;;;;;;5053098;28;20124;-70
2022/05/29 12:52:50;;;;;;;9.55;1.60;;;13.90;99.90;;;;;;5053225;28;20412;-70
2022/05/29 12:55:45;;;;;;;5.60;1.40;;;13.90;99.90;;;;;;5053082;28;20041;-70
2022/05/29 12:58:35;;;;;;;8.43;1.40;;;13.90;99.90;;;;;;5053301;28;20145;-70
2022/05/29 13:01:18;;;;;;;8.13;1.65;;;13.80;99.90;;;;;;5036510;28;20044;-69
2022/05/29 13:03:56;;;;;;;12.10;1.73;;;13.80;99.90;;;;;;5053202;28;20033;-69
2022/05/29 13:06:40;;;;;;;5.53;1.38;;;13.80;99.90;;;;;;5052827;28;20040;-69
2022/05/29 13:09:27;;;;;;;6.63;1.50;;;13.90;99.90;;;;;;5052783;28;20484;-69
2022/05/29 13:12:01;;;;;;;8.95;1.75;;;13.90;99.90;;;;;;5052719;28;20041;-70
2022/05/29 13:14:29;;;;;;;7.07;1.30;;;13.90;99.90;;;;;;5053061;28;20076;-70
2022/05/29 13:17:10;;;;;;;9.75;1.30;;;14.00;99.90;;;;;;5052906;28;20402;-70
2022/05/29 13:20:01;;;;;;;5.70;1.20;;;14.00;99.90;;;;;;5052779;28;20065;-70
2022/05/29 13:22:53;;;;;;;8.13;1.23;;;14.00;99.90;;;;;;5052502;28;20040;-70
2022/05/29 13:25:30;;;;;;;6.70;1.23;;;14.10;99.90;;;;;;5052824;28;20041;-70
2022/05/29 13:27:57;;;;;;;10.30;1.60;;;14.10;99.90;;;;;;5035899;28;20558;-70
2022/05/29 13:31:01;;;;;;;5.90;0.98;;;14.20;99.90;;;;;;5052342;28;20044;-70
2022/05/29 13:33:29;;;;;;;4.00;0.90;;;14.30;99.90;;;;;;4975961;28;20069;-70
2022/05/29 13:35:57;;;;;;;13.40;1.70;;;14.30;99.90;;;;;;4960484;28;20046;-69
2022/05/29 13:38:43;;;;;;;9.30;1.80;;;14.30;99.90;;;;;;4976220;28;20057;-70
2022/05/29 13:41:12;;;;;;;9.90;1.65;;;14.30;99.90;;;;;;4976099;28;20042;-70
2022/05/29 13:43:39;;;;;;;6.55;1.50;;;14.10;99.90;;;;;;4959827;28;20048;-70